createdAt,value
2022-08-05T00:01:20.828Z,100204.13
2022-08-05T00:04:34.230Z,100217.94
2022-08-05T00:07:59.787Z,100213.31
2022-08-05T00:11:20.807Z,100213.19
2022-08-05T00:14:37.431Z,100209.87
2022-08-05T00:17:44.017Z,100205.88
2022-08-05T00:20:54.355Z,100208.78
2022-08-05T00:24:10.018Z,100201.44
2022-08-05T00:27:17.599Z,100210.50
2022-08-05T00:30:29.317Z,100208.50
2022-08-05T00:34:54.217Z,100206.50
2022-08-05T00:37:11.542Z,100212.50
2022-08-05T00:40:27.018Z,100205.75
2022-08-05T00:43:47.174Z,100205.59
2022-08-05T00:47:01.891Z,100201.53
2022-08-05T00:50:10.660Z,100201.16
2022-08-05T00:53:45.121Z,100193.59
2022-08-05T00:56:51.422Z,100202.63
2022-08-05T00:59:57.718Z,100206.37
2022-08-05T01:03:22.255Z,100209.06
2022-08-05T01:06:32.567Z,100210.53
2022-08-05T01:09:38.970Z,100209.41
2022-08-05T01:13:00.431Z,100214.22
2022-08-05T01:16:22.998Z,100201.84
2022-08-05T01:20:00.935Z,100205.63
2022-08-05T01:23:24.831Z,100197.84
2022-08-05T01:27:17.875Z,100193.72
2022-08-05T01:30:34.173Z,100195.56
2022-08-05T01:33:53.478Z,100190.53
2022-08-05T01:37:04.458Z,100189.53
2022-08-05T01:40:11.450Z,100193.00
2022-08-05T01:43:22.415Z,100194.69
2022-08-05T01:46:42.467Z,100195.72
2022-08-05T01:50:02.138Z,100185.06
2022-08-05T01:53:14.204Z,100184.47
2022-08-05T01:58:11.651Z,100179.78
2022-08-05T02:00:12.420Z,100185.38
2022-08-05T02:03:35.649Z,100187.88
2022-08-05T02:06:42.135Z,100184.84
2022-08-05T02:09:51.985Z,100186.09
2022-08-05T02:13:15.923Z,100182.22
2022-08-05T02:16:44.069Z,100178.78
2022-08-05T02:19:55.402Z,100182.91
2022-08-05T02:23:10.227Z,100185.56
2022-08-05T02:26:22.233Z,100178.00
2022-08-05T02:29:59.914Z,100173.53
2022-08-05T02:32:57.668Z,100180.75
2022-08-05T02:36:04.833Z,100183.03
2022-08-05T02:39:11.636Z,100176.88
2022-08-05T02:42:25.667Z,100172.59
2022-08-05T02:45:51.866Z,100181.81
2022-08-05T02:49:03.631Z,100163.84
2022-08-05T02:52:29.692Z,100170.19
2022-08-05T02:55:54.470Z,100158.13
2022-08-05T02:59:05.855Z,100159.37
2022-08-05T03:02:13.614Z,100156.09
2022-08-05T03:05:21.887Z,100154.28
2022-08-05T03:08:48.945Z,100165.13
2022-08-05T03:11:58.468Z,100159.19
2022-08-05T03:15:07.083Z,100168.84
2022-08-05T03:18:17.317Z,100161.94
2022-08-05T03:21:23.239Z,100163.13
2022-08-05T03:24:35.018Z,100158.84
2022-08-05T03:27:59.401Z,100169.91
2022-08-05T03:31:07.315Z,100164.81
2022-08-05T03:34:13.239Z,100155.81
2022-08-05T03:37:21.778Z,100152.97
2022-08-05T03:40:32.364Z,100159.53
2022-08-05T03:44:10.016Z,100162.00
2022-08-05T03:47:06.577Z,100165.66
2022-08-05T03:50:12.676Z,100165.47
2022-08-05T03:55:49.776Z,100154.19
2022-08-05T03:57:16.130Z,100168.12
2022-08-05T04:00:27.362Z,100159.94
2022-08-05T04:03:38.652Z,100171.38
2022-08-05T04:06:48.027Z,100171.75
2022-08-05T04:09:57.914Z,100166.81
2022-08-05T04:13:09.202Z,100166.78
2022-08-05T04:16:15.411Z,100166.75
2022-08-05T04:19:31.152Z,100179.63
2022-08-05T04:22:36.833Z,100159.59
2022-08-05T04:26:00.290Z,100166.06
2022-08-05T04:29:08.427Z,100176.25
2022-08-05T04:32:20.003Z,100175.78
2022-08-05T04:36:16.831Z,100171.00
2022-08-05T04:39:07.650Z,100182.84
2022-08-05T04:42:13.690Z,100180.06
2022-08-05T04:45:31.018Z,100180.53
2022-08-05T04:48:47.288Z,100173.50
2022-08-05T04:52:00.544Z,100179.91
2022-08-05T04:55:14.883Z,100174.81
2022-08-05T04:58:21.681Z,100176.03
2022-08-05T05:02:08.117Z,100178.63
2022-08-05T05:05:02.753Z,100181.78
2022-08-05T05:08:14.472Z,100173.66
2022-08-05T05:11:41.629Z,100166.66
2022-08-05T05:15:04.111Z,100170.19
2022-08-05T05:18:12.375Z,100162.44
2022-08-05T05:21:19.482Z,100167.88
2022-08-05T05:24:57.012Z,100166.06
2022-08-05T05:28:12.196Z,100170.75
2022-08-05T05:31:19.274Z,100157.28
2022-08-05T05:34:29.355Z,100166.88
2022-08-05T05:37:59.029Z,100162.53
2022-08-05T05:41:07.619Z,100165.41
2022-08-05T05:44:35.806Z,100166.41
2022-08-05T05:48:07.028Z,100172.63
2022-08-05T05:51:15.758Z,100171.66
2022-08-05T05:54:49.968Z,100168.38
2022-08-05T05:57:53.242Z,100162.94
2022-08-05T06:01:12.384Z,100172.47
2022-08-05T06:04:22.413Z,100162.03
2022-08-05T06:07:41.730Z,100161.88
2022-08-05T06:10:52.892Z,100161.59
2022-08-05T06:14:00.379Z,100168.66
2022-08-05T06:17:22.597Z,100169.00
2022-08-05T06:20:32.238Z,100181.22
2022-08-05T06:23:44.034Z,100175.31
2022-08-05T06:26:53.535Z,100169.44
2022-08-05T06:30:17.863Z,100167.78
2022-08-05T06:33:52.251Z,100172.09
2022-08-05T06:36:58.128Z,100180.19
2022-08-05T06:40:05.710Z,100180.13
2022-08-05T06:43:57.957Z,100183.81
2022-08-05T06:46:42.536Z,100187.25
2022-08-05T06:50:00.591Z,100184.78
2022-08-05T06:53:19.573Z,100178.69
2022-08-05T06:56:34.871Z,100182.66
2022-08-05T06:59:48.504Z,100177.94
2022-08-05T07:03:05.097Z,100173.94
2022-08-05T07:06:20.686Z,100180.38
2022-08-05T07:09:32.431Z,100179.66
2022-08-05T07:13:02.970Z,100169.09
2022-08-05T07:18:01.493Z,100176.97
2022-08-05T07:20:32.959Z,100168.06
2022-08-05T07:23:40.603Z,100170.97
2022-08-05T07:27:00.490Z,100171.06
2022-08-05T07:30:27.578Z,100165.72
2022-08-05T07:33:40.953Z,100163.16
2022-08-05T07:36:47.402Z,100164.31
2022-08-05T07:40:04.680Z,100161.91
2022-08-05T07:43:24.642Z,100168.34
2022-08-05T07:46:33.656Z,100168.63
2022-08-05T07:49:54.669Z,100165.16
2022-08-05T07:53:06.532Z,100164.47
2022-08-05T07:57:02.642Z,100159.41
2022-08-05T07:59:46.975Z,100167.06
2022-08-05T08:03:15.233Z,100165.28
2022-08-05T08:06:28.174Z,100168.19
2022-08-05T08:09:34.863Z,100169.69
2022-08-05T08:12:49.440Z,100169.31
2022-08-05T08:16:50.519Z,100163.09
2022-08-05T08:20:23.382Z,100168.06
2022-08-05T08:23:00.091Z,100165.66
2022-08-05T08:26:10.615Z,100167.53
2022-08-05T08:29:45.585Z,100164.03
2022-08-05T08:32:47.237Z,100164.72
2022-08-05T08:36:18.526Z,100158.91
2022-08-05T08:39:26.582Z,100160.34
2022-08-05T08:42:50.423Z,100152.47
2022-08-05T08:46:02.916Z,100151.00
2022-08-05T08:50:07.834Z,100156.78
2022-08-05T08:52:39.757Z,100157.09
2022-08-05T08:56:04.357Z,100142.72
2022-08-05T08:59:19.506Z,100143.81
2022-08-05T09:02:27.186Z,100137.84
2022-08-05T09:05:38.269Z,100134.09
2022-08-05T09:09:04.694Z,100134.31
2022-08-05T09:12:20.816Z,100117.53
2022-08-05T09:15:37.028Z,100128.16
2022-08-05T09:18:50.047Z,100127.56
2022-08-05T09:22:28.721Z,100123.66
2022-08-05T09:25:59.886Z,100120.19
2022-08-05T09:29:06.596Z,100135.53
2022-08-05T09:32:40.727Z,100115.34
2022-08-05T09:36:11.758Z,100117.25
2022-08-05T09:39:39.306Z,100107.19
2022-08-05T09:42:54.198Z,100113.16
2022-08-05T09:46:35.200Z,100111.50
2022-08-05T09:50:00.951Z,100113.06
2022-08-05T09:53:13.029Z,100103.66
2022-08-05T09:56:31.932Z,100095.38
2022-08-05T09:59:39.089Z,100093.38
2022-08-05T10:02:51.134Z,100097.03
2022-08-05T10:06:16.083Z,100099.72
2022-08-05T10:09:27.428Z,100095.28
2022-08-05T10:12:49.160Z,100094.41
2022-08-05T10:15:58.861Z,100093.88
2022-08-05T10:19:09.303Z,100070.81
2022-08-05T10:22:29.965Z,100069.84
2022-08-05T10:25:45.659Z,100064.84
2022-08-05T10:28:51.534Z,100059.16
2022-08-05T10:32:54.813Z,100065.41
2022-08-05T10:35:33.754Z,100062.56
2022-08-05T10:38:58.485Z,100064.22
2022-08-05T10:42:14.120Z,100065.81
2022-08-05T10:45:42.137Z,100068.19
2022-08-05T10:49:09.804Z,100051.53
2022-08-05T10:52:58.976Z,100045.75
2022-08-05T10:56:21.090Z,100044.66
2022-08-05T11:00:02.606Z,100034.19
2022-08-05T11:03:24.811Z,100030.84
2022-08-05T11:07:11.919Z,100032.28
2022-08-05T11:10:31.027Z,100035.16
2022-08-05T11:13:57.778Z,100035.91
2022-08-05T11:17:59.891Z,100022.97
2022-08-05T11:20:59.824Z,100024.25
2022-08-05T11:24:30.730Z,100017.66
2022-08-05T11:27:50.991Z,100029.41
2022-08-05T11:31:19.543Z,100024.94
2022-08-05T11:34:50.944Z,100026.91
2022-08-05T11:38:30.851Z,100024.44
2022-08-05T11:41:54.842Z,100014.22
2022-08-05T11:45:05.360Z,100020.22
2022-08-05T11:48:12.062Z,100025.06
2022-08-05T11:51:43.987Z,100016.63
2022-08-05T11:54:54.733Z,100025.53
2022-08-05T11:58:10.223Z,100019.09
2022-08-05T12:01:41.537Z,100006.09
2022-08-05T12:04:59.540Z,100013.78
2022-08-05T12:08:11.731Z,100012.63
2022-08-05T12:11:40.280Z,100009.97
2022-08-05T12:14:49.646Z,100013.72
2022-08-05T12:18:02.588Z,100014.72
2022-08-05T12:21:17.499Z,100010.25
2022-08-05T12:24:24.661Z,99998.38
2022-08-05T12:27:34.737Z,100001.38
2022-08-05T12:31:07.676Z,100004.50
2022-08-05T12:34:25.942Z,99988.69
2022-08-05T12:37:33.876Z,99980.81
2022-08-05T12:40:44.199Z,99977.00
2022-08-05T12:44:00.935Z,99982.81
2022-08-05T12:47:12.418Z,99977.91
2022-08-05T12:50:20.078Z,99984.69
2022-08-05T12:53:38.770Z,99977.50
2022-08-05T12:57:09.287Z,99975.81
2022-08-05T13:02:00.325Z,99969.47
2022-08-05T13:03:53.958Z,99971.72
2022-08-05T13:07:02.801Z,99959.12
2022-08-05T13:10:19.665Z,99963.97
2022-08-05T13:14:05.965Z,99954.03
2022-08-05T13:17:41.666Z,99956.06
2022-08-05T13:20:52.312Z,99956.56
2022-08-05T13:23:59.431Z,99951.09
2022-08-05T13:27:05.669Z,99943.94
2022-08-05T13:30:34.220Z,99937.84
2022-08-05T13:34:21.465Z,99942.56
2022-08-05T13:37:27.171Z,99942.44
2022-08-05T13:40:51.608Z,99931.59
2022-08-05T13:44:02.047Z,99932.03
2022-08-05T13:47:09.348Z,99929.66
2022-08-05T13:50:16.994Z,99923.47
2022-08-05T13:53:24.194Z,99923.66
2022-08-05T13:56:50.445Z,99916.72
2022-08-05T14:00:02.128Z,99919.94
2022-08-05T14:03:12.530Z,99910.78
2022-08-05T14:06:38.943Z,99907.91
2022-08-05T14:09:55.438Z,99896.56
2022-08-05T14:13:02.070Z,99896.16
2022-08-05T14:16:11.318Z,99901.69
2022-08-05T14:19:19.671Z,99897.34
2022-08-05T14:22:30.339Z,99895.78
2022-08-05T14:25:46.216Z,99903.31
2022-08-05T14:28:53.549Z,99897.22
2022-08-05T14:32:12.365Z,99899.75
2022-08-05T14:35:36.988Z,99888.25
2022-08-05T14:38:53.616Z,99884.19
2022-08-05T14:42:20.787Z,99886.81
2022-08-05T14:45:31.684Z,99883.91
2022-08-05T14:48:38.597Z,99878.72
2022-08-05T14:51:45.978Z,99876.25
2022-08-05T14:54:54.198Z,99879.87
2022-08-05T14:58:01.038Z,99878.63
2022-08-05T15:01:47.298Z,99871.09
2022-08-05T15:04:52.117Z,99878.69
2022-08-05T15:08:10.676Z,99868.81
2022-08-05T15:11:20.712Z,99854.16
2022-08-05T15:14:50.676Z,99868.03
2022-08-05T15:17:57.650Z,99864.06
2022-08-05T15:21:11.296Z,99866.41
2022-08-05T15:24:19.237Z,99863.66
2022-08-05T15:27:32.022Z,99852.03
2022-08-05T15:30:45.757Z,99852.94
2022-08-05T15:34:18.957Z,99856.50
2022-08-05T15:38:34.272Z,99866.47
2022-08-05T15:41:04.466Z,99862.03
2022-08-05T15:44:23.878Z,99866.75
2022-08-05T15:47:57.537Z,99861.66
2022-08-05T15:51:06.496Z,99858.09
2022-08-05T15:54:15.273Z,99860.47
2022-08-05T15:57:23.553Z,99857.34
2022-08-05T16:00:51.037Z,99852.19
2022-08-05T16:03:58.570Z,99850.59
2022-08-05T16:07:10.988Z,99845.28
2022-08-05T16:10:23.090Z,99850.59
2022-08-05T16:13:35.091Z,99847.22
2022-08-05T16:16:44.376Z,99848.72
2022-08-05T16:20:05.296Z,99864.34
2022-08-05T16:23:18.501Z,99867.41
2022-08-05T16:26:27.839Z,99863.56
2022-08-05T16:29:37.127Z,99861.84
2022-08-05T16:32:46.777Z,99866.78
2022-08-05T16:35:56.216Z,99856.97
2022-08-05T16:39:04.546Z,99853.22
2022-08-05T16:42:27.859Z,99859.44
2022-08-05T16:46:07.236Z,99855.91
2022-08-05T16:49:07.036Z,99854.59
2022-08-05T16:52:14.258Z,99857.03
2022-08-05T16:55:21.778Z,99857.72
2022-08-05T16:58:32.997Z,99851.09
2022-08-05T17:01:54.541Z,99852.97
2022-08-05T17:05:05.555Z,99857.69
2022-08-05T17:08:15.875Z,99861.00
2022-08-05T17:11:48.710Z,99861.88
2022-08-05T17:15:01.141Z,99850.81
2022-08-05T17:18:10.556Z,99860.94
2022-08-05T17:21:26.099Z,99854.06
2022-08-05T17:24:56.754Z,99855.53
2022-08-05T17:28:06.393Z,99861.50
2022-08-05T17:31:24.140Z,99864.31
2022-08-05T17:34:44.405Z,99860.75
2022-08-05T17:37:53.397Z,99867.03
2022-08-05T17:41:22.781Z,99876.06
2022-08-05T17:44:39.637Z,99870.91
2022-08-05T17:47:58.159Z,99883.22
2022-08-05T17:51:08.993Z,99870.81
2022-08-05T17:54:15.445Z,99873.13
2022-08-05T17:57:29.538Z,99874.47
2022-08-05T18:00:40.761Z,99880.00
2022-08-05T18:04:03.765Z,99877.06
2022-08-05T18:07:12.554Z,99869.75
2022-08-05T18:10:26.099Z,99873.22
2022-08-05T18:13:36.891Z,99873.69
2022-08-05T18:16:54.098Z,99873.31
2022-08-05T18:20:04.038Z,99874.53
2022-08-05T18:23:12.436Z,99872.56
2022-08-05T18:26:19.059Z,99879.56
2022-08-05T18:29:40.293Z,99888.81
2022-08-05T18:32:53.611Z,99880.00
2022-08-05T18:36:19.050Z,99886.50
2022-08-05T18:40:30.885Z,99885.81
2022-08-05T18:42:59.033Z,99886.53
2022-08-05T18:46:09.789Z,99887.66
2022-08-05T18:49:44.537Z,99891.91
2022-08-05T18:53:15.058Z,99895.91
2022-08-05T18:56:35.615Z,99897.69
2022-08-05T19:00:03.011Z,99898.97
2022-08-05T19:03:11.051Z,99896.09
2022-08-05T19:06:21.931Z,99909.78
2022-08-05T19:09:44.753Z,99915.34
2022-08-05T19:12:52.577Z,99923.06
2022-08-05T19:16:03.786Z,99918.25
2022-08-05T19:19:10.409Z,99920.25
2022-08-05T19:22:27.545Z,99928.16
2022-08-05T19:25:43.371Z,99926.88
2022-08-05T19:28:50.525Z,99933.72
2022-08-05T19:31:57.513Z,99935.41
2022-08-05T19:35:06.377Z,99927.09
2022-08-05T19:38:13.179Z,99926.06
2022-08-05T19:41:22.159Z,99926.13
2022-08-05T19:44:51.376Z,99933.44
2022-08-05T19:47:57.617Z,99930.53
2022-08-05T19:51:04.182Z,99928.72
2022-08-05T19:54:21.648Z,99933.03
2022-08-05T19:57:49.285Z,99927.94
2022-08-05T20:01:05.386Z,99930.13
2022-08-05T20:04:12.593Z,99928.25
2022-08-05T20:07:46.514Z,99929.38
2022-08-05T20:10:49.807Z,99935.84
2022-08-05T20:13:58.924Z,99933.16
2022-08-05T20:17:23.423Z,99933.69
2022-08-05T20:20:30.147Z,99934.22
2022-08-05T20:23:51.370Z,99941.78
2022-08-05T20:27:00.803Z,99943.38
2022-08-05T20:30:10.518Z,99943.94
2022-08-05T20:33:17.396Z,99940.97
2022-08-05T20:36:28.957Z,99942.53
2022-08-05T20:39:35.674Z,99950.88
2022-08-05T20:42:43.574Z,99942.00
2022-08-05T20:45:56.900Z,99943.62
2022-08-05T20:49:08.194Z,99946.03
2022-08-05T20:52:14.627Z,99948.41
2022-08-05T20:56:07.301Z,99940.84
2022-08-05T20:58:48.821Z,99939.50
2022-08-05T21:01:58.589Z,99954.00
2022-08-05T21:05:06.489Z,99941.59
2022-08-05T21:08:15.558Z,99955.06
2022-08-05T21:12:09.643Z,99955.59
2022-08-05T21:14:50.851Z,99942.91
2022-08-05T21:17:57.494Z,99954.47
2022-08-05T21:21:04.053Z,99953.63
2022-08-05T21:24:12.884Z,99947.13
2022-08-05T21:27:20.618Z,99951.38
2022-08-05T21:30:32.716Z,99953.00
2022-08-05T21:33:40.157Z,99952.97
2022-08-05T21:36:46.659Z,99949.72
2022-08-05T21:39:55.327Z,99953.22
2022-08-05T21:43:01.502Z,99956.69
2022-08-05T21:46:12.087Z,99957.44
2022-08-05T21:49:48.023Z,99953.66
2022-08-05T21:52:48.545Z,99962.72
2022-08-05T21:56:05.598Z,99968.38
2022-08-05T21:59:24.392Z,99962.41
2022-08-05T22:02:32.598Z,99967.72
2022-08-05T22:05:49.043Z,99970.09
2022-08-05T22:08:55.838Z,99968.75
2022-08-05T22:12:03.508Z,99967.09
2022-08-05T22:16:00.529Z,99970.25
2022-08-05T22:18:49.171Z,99967.28
2022-08-05T22:21:55.624Z,99965.34
2022-08-05T22:25:27.845Z,99963.94
2022-08-05T22:28:54.253Z,99969.28
2022-08-05T22:32:03.328Z,99971.09
2022-08-05T22:35:10.074Z,99968.41
2022-08-05T22:38:16.353Z,99964.56
2022-08-05T22:42:04.807Z,99969.09
2022-08-05T22:44:56.401Z,99962.59
2022-08-05T22:48:03.018Z,99960.94
2022-08-05T22:51:22.499Z,99961.59
2022-08-05T22:54:30.146Z,99970.41
2022-08-05T22:57:36.928Z,99972.28
2022-08-05T23:00:42.797Z,99965.78
2022-08-05T23:03:57.906Z,99968.22
2022-08-05T23:07:07.001Z,99964.16
2022-08-05T23:10:13.589Z,99963.28
2022-08-05T23:13:19.981Z,99964.84
2022-08-05T23:16:53.567Z,99976.34
2022-08-05T23:20:00.859Z,99984.53
2022-08-05T23:23:08.951Z,99979.34
2022-08-05T23:26:15.077Z,99973.72
2022-08-05T23:29:21.568Z,99974.78
2022-08-05T23:32:28.192Z,99968.47
2022-08-05T23:35:34.767Z,99965.53
2022-08-05T23:38:41.088Z,99967.00
2022-08-05T23:41:51.326Z,99963.19
2022-08-05T23:44:58.131Z,99966.94
2022-08-05T23:48:05.971Z,99971.72
2022-08-05T23:51:15.295Z,99971.09
2022-08-05T23:54:30.341Z,99974.53
2022-08-05T23:57:40.704Z,99972.09
